Lexington, MS (39095)

11:49 AM CDT on June 30, 2015 (GMT -0500)
Spring Lake | | Change Station
CLOSE
Current Station
Personal Weather Station
Location: Carrollton, MS
Elevation: 351 ft
Nearby Weather Stations

Elev 351 ft 33.38 °N, 89.89 °W | Updated 9 minutes ago

Overcast
Overcast
68.2 °F
Feels Like 68.2 °F
N
2.2
Wind Variable Wind from South
Gusts 3.1 mph

Today
High -- | Low -- °F
--% Chance of Precip.
Yesterday
High -- | Low -- °F
Precip. -- in
5:54 AM 8:13 PM
Waxing Gibbous, 98% visible
Pressure 30.02 in
Visibility 10.0 miles
Clouds Scattered Clouds 6000 ft
Scattered Clouds 7500 ft
Mostly Cloudy 10000 ft
Dew Point 66 °F
Humidity 94%
Rainfall 0.91 in
Snow Depth Not available.
UV 5 out of 12
Pollen 3.00 out of 12
Air Quality Not available.
Flu Activity No Activity
SPECI KGWO 301608Z AUTO 19007KT 10SM TS SCT060 SCT075 BKN100 23/20 A3002 RMK AO2 LTG DSNT NE TSB08 T02280200

More Conditions Fewer Conditions

Pressure 30.02 in
Visibility 10.0 miles
Clouds Scattered Clouds 6000 ft
Scattered Clouds 7500 ft
Mostly Cloudy 10000 ft
Dew Point 66 °F
Humidity 94%
Rainfall 0.91 in
Snow Depth Not available.
UV 5 out of 12
Pollen 3.00 out of 12
Air Quality Not available.
Flu Activity No Activity
SPECI KGWO 301608Z AUTO 19007KT 10SM TS SCT060 SCT075 BKN100 23/20 A3002 RMK AO2 LTG DSNT NE TSB08 T02280200

More Conditions Fewer Conditions

10-Day Weather Forecast

×

Almanac

Astronomy

Jun. 30, 2015 Rise Set
Actual Time
Civil Twilight
Nautical Twilight
Astronomical Twilight
Moon
Length of Visible Light
Length of Day
Tomorrow will be .
, % of the Moon is Illuminated

Today's Extremes

State Highs State Lows

Community

WunderPhotos

Upload Photos

1,834,038 photos uploaded!

WunderBlogs® & News

Nearby

Air Quality

  Air Quality AQ Index Pollutant
Not available.

Snow Depth

Station Depth Elevation

Earthquake Activity

City Distance Mag. Time & Date
Minimum magnitude displayed is 2.5.

Coastal Water Temperatures

Place Temperature

Stations

Nearby Weather Stations

Station Location Temp. Windchill Dew Point Humidity Wind Precip. Elev Updated Type